Time;durP1;ratioP1;P1;durP2;ratioP2;P2;SDS_P1;SDS_P2;PMS_P1;PMS_P2;Temp;Humidity;BMP_temperature;BMP_pressure;BME280_temperature;BME280_humidity;BME280_pressure;Samples;Min_cycle;Max_cycle;Signal;HPM_P1;HPM_P2
2022/07/15 00:02:22;;;;;;;4.30;2.60;;;14.70;1.00;;;;;;4936776;29;20212;-62
2022/07/15 00:04:50;;;;;;;10.43;2.40;;;14.80;1.00;;;;;;4936854;29;20229;-62
2022/07/15 00:07:17;;;;;;;8.77;2.57;;;14.70;1.00;;;;;;4936229;29;20225;-63
2022/07/15 00:12:28;;;;;;;9.80;2.50;;;14.80;1.00;;;;;;4936648;29;20195;-62
2022/07/15 00:14:55;;;;;;;6.83;2.80;;;14.80;1.00;;;;;;4936700;29;20224;-62
2022/07/15 00:17:22;;;;;;;6.47;2.60;;;14.80;1.00;;;;;;4936584;29;20704;-62
2022/07/15 00:19:50;;;;;;;9.80;2.77;;;14.80;1.00;;;;;;4936721;29;20259;-61
2022/07/15 00:22:16;;;;;;;6.77;2.50;;;14.80;1.00;;;;;;4936822;29;20217;-62
2022/07/15 00:24:43;;;;;;;4.67;2.67;;;14.80;1.00;;;;;;4936524;29;20597;-62
2022/07/15 00:27:11;;;;;;;3.73;2.40;;;14.80;1.00;;;;;;4935942;29;20229;-62
2022/07/15 00:29:38;;;;;;;4.87;2.70;;;14.90;1.00;;;;;;4936499;29;20266;-62
2022/07/15 00:32:05;;;;;;;4.13;2.40;;;14.90;1.00;;;;;;4936652;29;20216;-62
2022/07/15 00:34:31;;;;;;;4.80;2.60;;;14.90;1.00;;;;;;4936681;29;20568;-63
2022/07/15 00:36:59;;;;;;;7.27;3.03;;;14.80;1.00;;;;;;4935883;29;20233;-62
2022/07/15 00:39:26;;;;;;;7.70;2.70;;;14.80;1.00;;;;;;4936180;29;20615;-63
2022/07/15 00:41:53;;;;;;;8.97;2.87;;;14.70;1.00;;;;;;4936022;29;20583;-62
2022/07/15 00:44:20;;;;;;;7.67;2.60;;;14.60;1.00;;;;;;4936000;29;20223;-62
2022/07/15 00:46:46;;;;;;;7.97;3.30;;;14.50;1.10;;;;;;4936043;29;20221;-62
2022/07/15 00:49:13;;;;;;;13.20;3.40;;;14.40;10.90;;;;;;4935810;29;20248;-61
2022/07/15 00:51:43;;;;;;;8.37;3.00;;;14.40;23.70;;;;;;4936251;29;20588;-62
2022/07/15 00:54:13;;;;;;;5.73;2.70;;;14.30;35.00;;;;;;4936392;29;20565;-62
2022/07/15 00:56:43;;;;;;;6.33;2.70;;;14.30;52.20;;;;;;4935626;29;20687;-61
2022/07/15 00:59:12;;;;;;;8.47;2.63;;;14.30;55.30;;;;;;4935920;29;20603;-61
2022/07/15 01:01:39;;;;;;;8.20;2.53;;;14.40;52.60;;;;;;4936153;29;20208;-61
2022/07/15 01:04:06;;;;;;;9.00;2.47;;;14.40;52.70;;;;;;4935760;29;20214;-62
2022/07/15 01:06:33;;;;;;;11.53;3.00;;;14.50;45.60;;;;;;4935260;29;20217;-62
2022/07/15 01:09:01;;;;;;;6.37;2.90;;;14.60;41.60;;;;;;4935640;29;20237;-62
2022/07/15 01:11:30;;;;;;;6.83;2.77;;;14.50;42.20;;;;;;4935686;29;20214;-62
2022/07/15 01:13:57;;;;;;;6.27;3.20;;;14.50;41.00;;;;;;4935590;29;20247;-62
2022/07/15 01:16:23;;;;;;;6.53;2.67;;;14.50;41.50;;;;;;4935135;29;20214;-62
2022/07/15 01:18:50;;;;;;;8.83;2.60;;;14.50;40.80;;;;;;4935686;29;20237;-62
2022/07/15 01:21:18;;;;;;;7.03;2.70;;;14.50;41.40;;;;;;4935553;29;20208;-61
2022/07/15 01:23:45;;;;;;;8.27;2.40;;;14.50;41.40;;;;;;4935378;29;20681;-61
2022/07/15 01:26:12;;;;;;;10.83;2.70;;;14.50;34.70;;;;;;4935390;29;20216;-62
2022/07/15 01:28:39;;;;;;;5.67;2.50;;;14.50;34.20;;;;;;4934916;29;20240;-62
2022/07/15 01:31:06;;;;;;;3.63;2.00;;;14.50;29.10;;;;;;4935131;29;20212;-62
2022/07/15 01:33:33;;;;;;;6.83;2.27;;;14.50;26.60;;;;;;4935405;29;20212;-62
2022/07/15 01:36:00;;;;;;;8.13;2.40;;;14.50;26.80;;;;;;4934929;29;20673;-62
2022/07/15 01:38:29;;;;;;;9.63;2.90;;;14.60;21.10;;;;;;4935387;29;20233;-62
2022/07/15 01:40:56;;;;;;;5.50;2.20;;;14.60;16.00;;;;;;4935406;29;20627;-62
2022/07/15 01:43:23;;;;;;;9.47;2.50;;;14.60;12.80;;;;;;4935404;29;20290;-61
2022/07/15 01:45:50;;;;;;;6.83;2.20;;;14.50;12.20;;;;;;4934909;29;20261;-61
2022/07/15 01:51:04;;;;;;;7.67;2.60;;;14.50;11.80;;;;;;4918921;29;20295;-61
2022/07/15 01:53:32;;;;;;;5.43;2.73;;;14.50;12.90;;;;;;4937054;29;20217;-61
2022/07/15 01:55:58;;;;;;;5.93;2.60;;;14.50;6.40;;;;;;4937839;29;20219;-62
2022/07/15 01:58:25;;;;;;;8.10;2.70;;;14.60;1.00;;;;;;4936124;29;20228;-61
2022/07/15 02:00:52;;;;;;;5.93;2.80;;;14.60;2.20;;;;;;4934821;29;20220;-61
2022/07/15 02:03:18;;;;;;;6.27;2.30;;;14.50;3.60;;;;;;4934463;29;20204;-61
2022/07/15 02:05:45;;;;;;;7.03;2.20;;;14.50;5.20;;;;;;4934754;29;20214;-62
2022/07/15 02:08:12;;;;;;;7.13;2.60;;;14.50;5.50;;;;;;4934271;29;20243;-61
2022/07/15 02:10:42;;;;;;;5.30;2.67;;;14.50;5.00;;;;;;4934866;29;20220;-61
2022/07/15 02:13:11;;;;;;;10.57;2.90;;;14.60;1.00;;;;;;4934760;29;20219;-61
2022/07/15 02:15:38;;;;;;;6.93;2.10;;;14.60;1.00;;;;;;4934768;29;20218;-62
2022/07/15 02:18:06;;;;;;;3.40;2.37;;;14.50;1.00;;;;;;4933954;29;20215;-61
2022/07/15 02:20:33;;;;;;;3.17;2.07;;;14.50;1.00;;;;;;4934555;29;20216;-61
2022/07/15 02:23:01;;;;;;;5.90;2.33;;;14.40;1.00;;;;;;4934741;29;20220;-62
2022/07/15 02:25:30;;;;;;;6.27;2.30;;;14.50;1.00;;;;;;4935381;29;20219;-61
2022/07/15 02:28:00;;;;;;;7.83;2.27;;;14.50;1.00;;;;;;4934341;29;20741;-62
2022/07/15 02:30:27;;;;;;;7.30;2.40;;;14.50;1.00;;;;;;4934509;29;20700;-61
2022/07/15 02:32:55;;;;;;;6.93;2.70;;;14.50;1.00;;;;;;4934884;29;20235;-61
2022/07/15 02:35:22;;;;;;;6.40;2.20;;;14.30;1.00;;;;;;4934627;29;20838;-61
2022/07/15 02:37:49;;;;;;;5.93;2.03;;;14.30;1.00;;;;;;4934038;29;20216;-61
2022/07/15 02:40:16;;;;;;;8.83;2.53;;;14.10;2.30;;;;;;4934277;29;20211;-62
2022/07/15 02:42:48;;;;;;;8.80;3.00;;;14.10;1.20;;;;;;4934612;29;20302;-62
2022/07/15 02:45:16;;;;;;;5.17;2.60;;;14.00;4.20;;;;;;4934372;29;20756;-62
2022/07/15 02:47:42;;;;;;;5.30;2.63;;;13.90;8.20;;;;;;4933908;29;20755;-62
2022/07/15 02:50:09;;;;;;;4.00;2.20;;;13.90;15.60;;;;;;4934172;29;20585;-62
2022/07/15 02:52:36;;;;;;;9.70;2.60;;;13.80;21.30;;;;;;4934103;29;20701;-62
2022/07/15 02:55:03;;;;;;;11.10;3.27;;;13.60;32.20;;;;;;4934517;29;20212;-62
2022/07/15 02:57:30;;;;;;;6.33;2.70;;;13.60;37.80;;;;;;4934179;29;20627;-62
2022/07/15 02:59:58;;;;;;;7.07;2.80;;;13.60;39.10;;;;;;4934377;29;20238;-62
2022/07/15 03:02:26;;;;;;;5.53;2.60;;;13.60;41.80;;;;;;4934439;29;20234;-62
2022/07/15 03:04:53;;;;;;;10.00;3.10;;;13.50;43.20;;;;;;4933988;29;20218;-62
2022/07/15 03:07:19;;;;;;;8.30;2.90;;;13.40;54.50;;;;;;4934114;29;20239;-62
2022/07/15 03:09:46;;;;;;;6.67;2.80;;;13.40;57.80;;;;;;4933891;29;20238;-62
2022/07/15 03:12:13;;;;;;;6.60;2.30;;;13.40;57.60;;;;;;4934063;29;20215;-62
2022/07/15 03:14:40;;;;;;;10.40;2.80;;;13.30;60.30;;;;;;4934244;29;20245;-62
2022/07/15 03:17:08;;;;;;;10.87;2.87;;;13.30;64.30;;;;;;4934130;29;20213;-62
2022/07/15 03:19:36;;;;;;;8.63;2.57;;;13.30;66.50;;;;;;4934324;29;20318;-62
2022/07/15 03:22:03;;;;;;;7.63;3.37;;;13.20;70.00;;;;;;4934298;29;20215;-62
2022/07/15 03:24:30;;;;;;;9.37;2.80;;;13.20;75.10;;;;;;4934255;29;20286;-61
2022/07/15 03:26:56;;;;;;;9.00;2.57;;;13.10;80.50;;;;;;4933810;29;20222;-62
2022/07/15 03:29:23;;;;;;;6.30;2.73;;;13.00;91.90;;;;;;4934170;29;20245;-62
2022/07/15 03:31:50;;;;;;;9.83;2.60;;;12.90;97.50;;;;;;4936641;29;20191;-62
2022/07/15 03:34:17;;;;;;;5.23;2.37;;;13.00;97.70;;;;;;4937654;29;20211;-62
2022/07/15 03:36:45;;;;;;;6.17;2.47;;;12.90;98.70;;;;;;4937276;29;20218;-62
2022/07/15 03:39:11;;;;;;;4.40;2.20;;;12.90;99.90;;;;;;4937323;29;20226;-62
2022/07/15 03:41:38;;;;;;;4.80;2.43;;;12.90;99.90;;;;;;4937516;29;20213;-62
2022/07/15 03:44:05;;;;;;;7.97;2.77;;;13.00;99.90;;;;;;4937169;29;20696;-61
2022/07/15 03:46:33;;;;;;;11.53;3.23;;;13.00;99.90;;;;;;4936914;29;20210;-62
2022/07/15 03:49:01;;;;;;;6.90;2.30;;;12.90;99.90;;;;;;4936696;29;20709;-61
2022/07/15 03:51:30;;;;;;;6.50;2.57;;;12.90;99.90;;;;;;4937435;29;20245;-62
2022/07/15 03:53:58;;;;;;;6.00;2.70;;;12.90;99.90;;;;;;4937305;29;20211;-62
2022/07/15 03:56:25;;;;;;;10.10;3.00;;;12.90;99.90;;;;;;4936675;29;20221;-63
2022/07/15 03:58:52;;;;;;;6.13;2.80;;;12.90;99.90;;;;;;4937342;29;20231;-62
2022/07/15 04:01:18;;;;;;;6.40;2.93;;;12.90;99.90;;;;;;4936880;29;20210;-62
2022/07/15 04:03:45;;;;;;;5.47;2.93;;;12.90;99.90;;;;;;4937346;29;20219;-63
2022/07/15 04:06:12;;;;;;;5.33;2.60;;;12.90;99.90;;;;;;4936819;29;20214;-63
2022/07/15 04:08:38;;;;;;;7.93;3.33;;;12.90;99.90;;;;;;4936764;29;20233;-63
2022/07/15 04:11:06;;;;;;;5.70;3.13;;;12.90;99.90;;;;;;4936662;29;20213;-62
2022/07/15 04:13:33;;;;;;;8.63;3.20;;;12.90;99.90;;;;;;4936365;29;20229;-63
2022/07/15 04:16:00;;;;;;;9.10;3.30;;;12.90;99.90;;;;;;4936683;29;20206;-63
2022/07/15 04:18:26;;;;;;;10.50;4.23;;;12.90;99.90;;;;;;4936336;29;20238;-62
2022/07/15 04:20:53;;;;;;;6.10;3.20;;;13.00;99.90;;;;;;4936565;29;20605;-62
2022/07/15 04:23:20;;;;;;;8.57;3.70;;;13.00;99.90;;;;;;4936164;29;20215;-63
2022/07/15 04:25:46;;;;;;;10.40;3.77;;;13.00;99.90;;;;;;4936839;29;20857;-63
2022/07/15 04:28:14;;;;;;;10.23;3.57;;;13.00;99.90;;;;;;4936065;29;20239;-63
2022/07/15 04:30:41;;;;;;;10.87;4.17;;;13.00;99.90;;;;;;4940903;29;20620;-63
2022/07/15 04:33:08;;;;;;;7.57;3.70;;;13.00;99.90;;;;;;4935218;29;20203;-62
2022/07/15 04:35:35;;;;;;;7.00;3.80;;;13.00;99.90;;;;;;4935751;29;20556;-62
2022/07/15 04:38:01;;;;;;;7.20;4.07;;;13.10;99.90;;;;;;4935615;29;20211;-62
2022/07/15 04:40:28;;;;;;;8.37;4.27;;;13.10;99.90;;;;;;4936454;29;20216;-62
2022/07/15 04:42:55;;;;;;;8.67;3.93;;;13.10;99.90;;;;;;4935964;29;20218;-62
2022/07/15 04:45:23;;;;;;;10.73;4.10;;;13.10;99.90;;;;;;4936360;29;20288;-63
2022/07/15 04:47:49;;;;;;;7.90;3.63;;;13.20;99.90;;;;;;4935717;29;20234;-62
2022/07/15 04:53:00;;;;;;;10.60;4.17;;;13.30;99.90;;;;;;4948435;29;20600;-62
2022/07/15 04:55:27;;;;;;;8.23;3.80;;;13.30;99.90;;;;;;4954869;29;20225;-62
2022/07/15 04:57:54;;;;;;;9.87;4.20;;;13.30;99.90;;;;;;4954321;29;20232;-62
2022/07/15 05:00:22;;;;;;;7.40;4.10;;;13.40;99.90;;;;;;4955060;29;20222;-62
2022/07/15 05:02:49;;;;;;;11.10;3.93;;;13.40;99.90;;;;;;4954600;29;20207;-62
2022/07/15 05:05:16;;;;;;;7.77;3.50;;;13.40;99.90;;;;;;4939754;29;20585;-62
2022/07/15 05:07:43;;;;;;;10.57;4.27;;;13.50;99.90;;;;;;4935631;29;20215;-62
2022/07/15 05:10:10;;;;;;;9.63;4.00;;;13.50;99.90;;;;;;4935461;29;20246;-62
2022/07/15 05:12:37;;;;;;;9.60;3.67;;;13.50;99.90;;;;;;4935626;29;20303;-63
2022/07/15 05:15:05;;;;;;;6.07;3.83;;;13.50;99.90;;;;;;4935504;29;20215;-62
2022/07/15 05:17:33;;;;;;;7.93;4.30;;;13.60;99.90;;;;;;4935277;29;20208;-62
2022/07/15 05:20:00;;;;;;;10.07;4.03;;;13.70;98.80;;;;;;4937806;29;20256;-62
2022/07/15 05:22:27;;;;;;;12.77;4.37;;;13.80;94.40;;;;;;4940335;29;20710;-62
2022/07/15 05:24:53;;;;;;;7.43;3.90;;;13.70;93.50;;;;;;4941775;29;20210;-63
2022/07/15 05:27:21;;;;;;;8.90;4.20;;;13.80;93.90;;;;;;4938384;29;20227;-65
2022/07/15 05:29:47;;;;;;;6.37;3.40;;;13.80;94.10;;;;;;4935649;29;20250;-67
2022/07/15 05:32:14;;;;;;;10.70;4.40;;;13.80;91.30;;;;;;4935981;29;20216;-65
2022/07/15 05:34:42;;;;;;;7.67;3.80;;;13.80;84.30;;;;;;4934777;29;20223;-64
2022/07/15 05:37:09;;;;;;;10.87;4.47;;;13.90;81.60;;;;;;4934606;29;20221;-61
2022/07/15 05:39:35;;;;;;;16.53;4.50;;;13.90;72.50;;;;;;4934804;29;20231;-62
2022/07/15 05:42:02;;;;;;;11.73;3.53;;;13.90;47.80;;;;;;4935151;29;20699;-63
2022/07/15 05:44:29;;;;;;;12.97;3.73;;;14.00;38.30;;;;;;4934781;29;20596;-62
2022/07/15 05:46:55;;;;;;;9.27;3.90;;;14.10;35.50;;;;;;4934394;29;20207;-62
2022/07/15 05:49:22;;;;;;;12.17;4.20;;;14.10;28.00;;;;;;4934491;29;20651;-62
2022/07/15 05:51:51;;;;;;;8.60;3.77;;;14.10;29.60;;;;;;4934780;29;20209;-62
2022/07/15 05:54:17;;;;;;;8.20;3.43;;;14.20;29.50;;;;;;4934197;29;20224;-62
2022/07/15 05:56:44;;;;;;;8.73;2.70;;;14.10;25.10;;;;;;4934198;29;20248;-63
2022/07/15 05:59:11;;;;;;;10.47;2.97;;;14.20;20.00;;;;;;4934662;29;20231;-62
2022/07/15 06:01:37;;;;;;;6.47;3.33;;;14.40;8.70;;;;;;4934479;29;20212;-62
2022/07/15 06:04:04;;;;;;;7.47;3.43;;;14.40;5.80;;;;;;4934378;29;20215;-64
2022/07/15 06:06:31;;;;;;;9.20;2.90;;;14.40;11.40;;;;;;4934094;29;20586;-67
2022/07/15 06:08:59;;;;;;;45.13;22.50;;;14.40;1.00;;;;;;4934202;29;20241;-67
2022/07/15 06:11:25;;;;;;;5.97;2.20;;;14.50;1.00;;;;;;4934696;29;20206;-65
2022/07/15 06:13:52;;;;;;;6.50;2.43;;;14.50;1.00;;;;;;4934130;29;20216;-68
2022/07/15 06:16:19;;;;;;;4.80;1.73;;;14.50;1.00;;;;;;4934168;29;20212;-66
2022/07/15 06:18:46;;;;;;;6.13;1.50;;;14.60;1.00;;;;;;4934333;29;20232;-66
2022/07/15 06:21:12;;;;;;;5.23;1.60;;;14.70;99.90;;;;;;4933935;29;20221;-66
2022/07/15 06:23:39;;;;;;;7.80;1.77;;;14.70;99.90;;;;;;4944816;29;20220;-64
2022/07/15 06:26:07;;;;;;;7.40;2.03;;;14.70;99.90;;;;;;4952843;29;20216;-64
2022/07/15 06:28:34;;;;;;;6.40;1.63;;;14.70;11.80;;;;;;4953226;29;20252;-65
2022/07/15 06:31:01;;;;;;;8.63;1.73;;;14.70;1.00;;;;;;4953247;29;20703;-65
2022/07/15 06:33:27;;;;;;;5.03;1.70;;;14.70;1.00;;;;;;4953091;29;20252;-65
2022/07/15 06:35:55;;;;;;;3.10;1.43;;;14.70;1.00;;;;;;4940027;29;20555;-65
2022/07/15 06:38:22;;;;;;;5.50;1.43;;;14.80;1.00;;;;;;4932963;29;20230;-62
2022/07/15 06:40:49;;;;;;;4.93;1.50;;;15.00;1.00;;;;;;4933998;29;20622;-64
2022/07/15 06:43:17;;;;;;;6.93;1.70;;;15.20;99.90;;;;;;4933559;29;20232;-63
2022/07/15 06:45:43;;;;;;;5.90;1.80;;;15.40;99.90;;;;;;4933765;29;20206;-63
2022/07/15 06:48:10;;;;;;;3.60;1.40;;;15.70;99.90;;;;;;4933274;29;20233;-63
2022/07/15 06:50:37;;;;;;;5.43;1.53;;;15.80;99.90;;;;;;4933624;29;20209;-63
2022/07/15 06:53:03;;;;;;;7.23;1.57;;;15.90;99.90;;;;;;4933732;29;20205;-63
2022/07/15 06:55:30;;;;;;;5.70;1.33;;;16.20;99.90;;;;;;4933382;29;20208;-64
2022/07/15 06:57:57;;;;;;;6.77;1.40;;;16.50;99.90;;;;;;4933263;29;20216;-61
2022/07/15 07:00:25;;;;;;;4.53;1.20;;;16.70;99.90;;;;;;4933689;29;20629;-61
2022/07/15 07:02:52;;;;;;;1.93;0.90;;;16.60;99.90;;;;;;4933990;29;20214;-61
2022/07/15 07:05:19;;;;;;;7.47;1.00;;;16.70;99.90;;;;;;4934721;29;20210;-62
2022/07/15 07:07:46;;;;;;;3.97;1.33;;;16.80;99.90;;;;;;4936554;29;20209;-61
2022/07/15 07:10:13;;;;;;;6.30;1.23;;;16.70;99.90;;;;;;4937192;29;20226;-61
2022/07/15 07:12:40;;;;;;;4.80;1.30;;;16.70;99.90;;;;;;4937355;29;20585;-61
2022/07/15 07:15:07;;;;;;;5.13;1.30;;;16.60;99.90;;;;;;4937356;29;20221;-61
2022/07/15 07:17:36;;;;;;;7.10;1.80;;;16.60;99.90;;;;;;4936763;29;20210;-63
2022/07/15 07:20:03;;;;;;;4.17;1.37;;;16.60;99.90;;;;;;4936636;29;20222;-63
2022/07/15 07:22:30;;;;;;;8.33;1.73;;;16.70;99.90;;;;;;4936959;29;20206;-64
2022/07/15 07:24:59;;;;;;;6.33;1.13;;;16.90;99.90;;;;;;4936859;29;20217;-63
2022/07/15 07:27:26;;;;;;;5.00;1.10;;;17.00;99.90;;;;;;4935820;29;20221;-64
2022/07/15 07:29:52;;;;;;;5.43;1.03;;;16.80;99.90;;;;;;4937189;29;20234;-63
2022/07/15 07:32:19;;;;;;;1.97;0.83;;;16.60;99.90;;;;;;4936961;29;20210;-63
2022/07/15 07:34:47;;;;;;;5.10;1.43;;;16.50;99.90;;;;;;4936802;29;20213;-66
2022/07/15 07:37:14;;;;;;;3.97;1.30;;;16.70;99.90;;;;;;4936137;29;20755;-62
2022/07/15 07:39:40;;;;;;;5.97;1.30;;;17.00;99.90;;;;;;4936421;29;20230;-64
2022/07/15 07:42:07;;;;;;;3.33;1.20;;;17.10;99.90;;;;;;4936923;29;20303;-63
2022/07/15 07:44:34;;;;;;;5.23;1.43;;;17.10;99.90;;;;;;4936553;29;20210;-62
2022/07/15 07:47:01;;;;;;;5.87;1.60;;;17.30;99.90;;;;;;4936141;29;20209;-64
2022/07/15 07:49:28;;;;;;;6.47;2.17;;;17.50;99.90;;;;;;4936005;29;20229;-63
2022/07/15 07:51:55;;;;;;;4.43;1.10;;;17.60;99.90;;;;;;4936618;29;20220;-63
2022/07/15 07:54:22;;;;;;;3.77;1.57;;;17.20;99.90;;;;;;4936179;29;20216;-64
2022/07/15 07:56:49;;;;;;;6.07;1.40;;;17.00;99.90;;;;;;4935793;29;20217;-63
2022/07/15 07:59:16;;;;;;;8.93;2.20;;;17.00;99.90;;;;;;4936574;29;20233;-64
2022/07/15 08:01:42;;;;;;;6.10;2.13;;;17.00;99.90;;;;;;4935880;29;20221;-65
2022/07/15 08:04:10;;;;;;;10.70;2.50;;;17.20;99.90;;;;;;4936422;29;20216;-63
2022/07/15 08:06:38;;;;;;;4.17;1.50;;;17.00;99.90;;;;;;4935600;29;20216;-63
2022/07/15 08:09:06;;;;;;;6.23;2.07;;;17.10;99.90;;;;;;4935674;29;20226;-64
2022/07/15 08:11:33;;;;;;;7.40;1.90;;;17.30;99.90;;;;;;4944044;29;20220;-63
2022/07/15 08:14:00;;;;;;;5.80;2.00;;;17.50;99.90;;;;;;4955167;29;20216;-64
2022/07/15 08:16:27;;;;;;;6.30;1.73;;;17.50;99.90;;;;;;4947530;28;20213;-64
2022/07/15 08:18:54;;;;;;;7.57;1.50;;;17.80;99.90;;;;;;4935937;29;20229;-64
2022/07/15 08:21:20;;;;;;;6.90;1.77;;;18.10;99.90;;;;;;4936270;29;20688;-64
2022/07/15 08:23:48;;;;;;;4.97;1.30;;;18.10;99.90;;;;;;4935867;29;20840;-62
2022/07/15 08:26:22;;;;;;;5.67;1.57;;;18.00;99.90;;;;;;4935275;29;20209;-62
2022/07/15 08:28:49;;;;;;;3.83;1.27;;;18.40;99.90;;;;;;4935979;29;20241;-65
2022/07/15 08:31:16;;;;;;;5.90;1.43;;;18.60;99.90;;;;;;4935093;29;20237;-66
2022/07/15 08:33:43;;;;;;;4.80;1.70;;;18.90;99.90;;;;;;4935993;29;20224;-66
2022/07/15 08:36:10;;;;;;;5.90;1.80;;;18.70;99.90;;;;;;4935275;29;20210;-65
2022/07/15 08:38:36;;;;;;;4.57;2.20;;;18.50;99.90;;;;;;4935716;29;20226;-66
2022/07/15 08:41:03;;;;;;;9.20;2.70;;;18.20;99.90;;;;;;4935954;29;20205;-65
2022/07/15 08:43:32;;;;;;;6.13;2.43;;;17.90;99.90;;;;;;4935226;29;20708;-66
2022/07/15 08:45:59;;;;;;;6.90;2.03;;;17.60;99.90;;;;;;4935274;29;20224;-63
2022/07/15 08:48:29;;;;;;;5.53;1.70;;;17.90;99.90;;;;;;4935064;29;20717;-63
2022/07/15 08:50:56;;;;;;;8.33;2.10;;;17.60;99.90;;;;;;4934997;29;20261;-62
2022/07/15 08:53:23;;;;;;;7.60;2.07;;;17.70;99.90;;;;;;4935669;29;20681;-63
2022/07/15 08:55:50;;;;;;;7.90;1.93;;;17.80;99.90;;;;;;4935231;29;20216;-62
2022/07/15 08:58:17;;;;;;;6.73;1.97;;;17.90;99.90;;;;;;4935024;29;20255;-62
2022/07/15 09:00:45;;;;;;;10.23;2.40;;;18.10;99.90;;;;;;4935045;29;20213;-62
2022/07/15 09:03:13;;;;;;;4.40;1.83;;;18.40;99.90;;;;;;4936625;29;20309;-63
2022/07/15 09:05:39;;;;;;;5.93;1.53;;;18.60;99.90;;;;;;4936118;29;20301;-64
2022/07/15 09:08:08;;;;;;;4.03;1.40;;;18.90;99.90;;;;;;4934864;29;20209;-64
2022/07/15 09:10:50;;;;;;;6.27;1.70;;;19.10;99.90;;;;;;4934974;29;20606;-65
2022/07/15 09:13:25;;;;;;;3.57;1.50;;;19.10;99.90;;;;;;4934568;29;20213;-65
2022/07/15 09:15:55;;;;;;;3.70;1.40;;;19.00;99.90;;;;;;4934661;29;20220;-65
2022/07/15 09:18:23;;;;;;;3.43;1.40;;;19.30;99.90;;;;;;4934717;29;20256;-67
2022/07/15 09:20:50;;;;;;;3.50;1.13;;;19.50;99.90;;;;;;4934754;29;20210;-65
2022/07/15 09:23:22;;;;;;;3.50;0.80;;;19.60;99.90;;;;;;4934948;29;20689;-65
2022/07/15 09:25:50;;;;;;;5.00;1.17;;;19.60;99.90;;;;;;4934725;29;20357;-65
2022/07/15 09:28:17;;;;;;;3.07;1.60;;;19.60;99.90;;;;;;4933246;29;20265;-65
2022/07/15 09:33:36;;;;;;;3.67;1.00;;;19.60;99.90;;;;;;4934873;29;20241;-66
2022/07/15 09:36:11;;;;;;;7.67;1.50;;;19.50;99.90;;;;;;4934499;29;20245;-66
2022/07/15 09:38:44;;;;;;;4.70;1.20;;;19.20;99.90;;;;;;4934103;29;20612;-68
2022/07/15 09:41:14;;;;;;;3.37;1.47;;;19.10;99.90;;;;;;4935019;29;20296;-67
2022/07/15 09:43:51;;;;;;;5.30;1.07;;;19.10;99.90;;;;;;4934650;29;20206;-67
2022/07/15 09:46:19;;;;;;;4.03;1.07;;;19.40;99.90;;;;;;4934521;29;20210;-62
2022/07/15 09:48:49;;;;;;;2.23;0.83;;;19.70;99.90;;;;;;4934201;29;20233;-67
2022/07/15 09:51:17;;;;;;;3.90;1.00;;;19.90;99.90;;;;;;4933989;29;20233;-64
2022/07/15 09:53:45;;;;;;;3.73;0.90;;;20.20;99.90;;;;;;4934799;29;20213;-64
2022/07/15 09:56:21;;;;;;;1.50;0.93;;;20.00;99.90;;;;;;4933727;29;20236;-64
2022/07/15 09:58:48;;;;;;;5.03;1.13;;;19.80;99.90;;;;;;4934169;29;20239;-64
2022/07/15 10:01:15;;;;;;;4.00;1.40;;;19.60;99.90;;;;;;4934084;29;20202;-65
2022/07/15 10:03:42;;;;;;;7.60;1.30;;;19.40;99.90;;;;;;4933899;29;20216;-64
2022/07/15 10:06:12;;;;;;;6.20;1.07;;;19.40;99.90;;;;;;4933841;29;20206;-66
2022/07/15 10:08:39;;;;;;;5.87;1.30;;;19.40;99.90;;;;;;4933985;29;20233;-65
2022/07/15 10:11:11;;;;;;;3.60;1.00;;;19.60;99.90;;;;;;4947086;29;20240;-64
2022/07/15 10:14:07;;;;;;;5.43;1.23;;;19.50;99.90;;;;;;4952709;29;20209;-63
2022/07/15 10:16:56;;;;;;;5.90;1.20;;;19.60;99.90;;;;;;4952974;28;20626;-62
2022/07/15 10:19:34;;;;;;;3.43;1.23;;;19.30;99.90;;;;;;4952974;29;20225;-63
2022/07/15 10:22:15;;;;;;;4.47;0.90;;;19.40;99.90;;;;;;4953394;29;20593;-63
2022/07/15 10:24:53;;;;;;;4.47;0.90;;;19.20;99.90;;;;;;4953157;29;20795;-63
2022/07/15 10:27:44;;;;;;;4.37;1.00;;;19.40;99.90;;;;;;4952175;29;20220;-63
2022/07/15 10:30:11;;;;;;;3.00;1.00;;;19.60;99.90;;;;;;4952933;29;20241;-64
2022/07/15 10:33:14;;;;;;;5.80;1.10;;;19.90;99.90;;;;;;4952591;29;20209;-64
2022/07/15 10:35:44;;;;;;;3.90;1.43;;;20.30;99.90;;;;;;4953179;29;20201;-64
2022/07/15 10:38:33;;;;;;;2.03;0.90;;;20.10;99.90;;;;;;4951943;29;20229;-64
2022/07/15 10:41:07;;;;;;;3.10;0.90;;;20.30;99.90;;;;;;4956283;28;20209;-65
2022/07/15 10:43:42;;;;;;;4.07;0.90;;;20.50;99.90;;;;;;4956700;29;20208;-66
2022/07/15 10:46:25;;;;;;;3.97;1.20;;;20.60;99.90;;;;;;4956705;29;20574;-65
2022/07/15 10:48:54;;;;;;;5.47;1.03;;;20.60;99.90;;;;;;4956385;29;20734;-65
2022/07/15 10:51:43;;;;;;;3.57;1.10;;;20.60;99.90;;;;;;4956631;29;20225;-64
2022/07/15 10:54:27;;;;;;;3.17;1.00;;;20.50;99.90;;;;;;4956981;29;20212;-66
2022/07/15 10:56:55;;;;;;;4.23;0.80;;;20.30;99.90;;;;;;4955490;29;20215;-68
2022/07/15 10:59:24;;;;;;;4.13;1.20;;;20.20;99.90;;;;;;4956720;29;20229;-66
2022/07/15 11:02:11;;;;;;;4.43;0.83;;;20.10;99.90;;;;;;4956189;29;20668;-66
2022/07/15 11:04:38;;;;;;;2.57;1.07;;;20.00;99.90;;;;;;4956378;29;20626;-63
2022/07/15 11:07:36;;;;;;;3.27;1.00;;;19.60;99.90;;;;;;4955713;29;20213;-66
2022/07/15 11:10:19;;;;;;;2.03;0.87;;;19.70;99.90;;;;;;4915804;29;20234;-66
2022/07/15 11:13:06;;;;;;;7.97;1.17;;;19.80;99.90;;;;;;4951026;28;20683;-66
2022/07/15 11:15:33;;;;;;;5.27;1.20;;;19.50;99.90;;;;;;4956505;29;20209;-63
2022/07/15 11:18:01;;;;;;;5.40;1.17;;;19.20;99.90;;;;;;4955793;28;20237;-64
2022/07/15 11:20:31;;;;;;;4.10;1.10;;;19.20;99.90;;;;;;4943592;29;20205;-64
2022/07/15 11:23:00;;;;;;;2.27;0.80;;;19.50;99.90;;;;;;4936933;29;20209;-64
2022/07/15 11:25:32;;;;;;;2.10;0.80;;;19.40;99.90;;;;;;4936666;29;20857;-67
2022/07/15 11:28:08;;;;;;;0.97;0.80;;;19.40;99.90;;;;;;4936591;29;20270;-63
2022/07/15 11:30:38;;;;;;;4.03;0.80;;;19.60;99.90;;;;;;4945477;29;20240;-63
2022/07/15 11:33:08;;;;;;;4.73;0.90;;;19.80;99.90;;;;;;4956176;29;20251;-63
2022/07/15 11:35:47;;;;;;;2.90;0.83;;;20.10;99.90;;;;;;4956356;29;20317;-64
2022/07/15 11:38:15;;;;;;;2.23;0.73;;;20.10;99.90;;;;;;4955397;29;20229;-65
2022/07/15 11:46:18;;;;;;;2.43;0.90;;;20.20;99.90;;;;;;4955429;29;20251;-63
2022/07/15 11:48:45;;;;;;;3.30;0.80;;;20.20;99.90;;;;;;4955459;29;20235;-62
2022/07/15 11:51:13;;;;;;;2.10;0.80;;;20.10;99.90;;;;;;4954832;28;20235;-63
2022/07/15 11:53:42;;;;;;;3.20;0.90;;;20.00;99.90;;;;;;4955251;28;20235;-63
2022/07/15 11:56:11;;;;;;;3.10;1.20;;;20.00;99.90;;;;;;4954938;29;20232;-63
2022/07/15 11:58:41;;;;;;;3.73;0.80;;;20.00;99.90;;;;;;4955513;29;20608;-63
2022/07/15 12:01:10;;;;;;;5.03;1.50;;;19.90;99.90;;;;;;4955766;28;20210;-63
2022/07/15 12:03:40;;;;;;;2.50;0.90;;;19.90;99.90;;;;;;4955224;29;20216;-65
2022/07/15 12:06:10;;;;;;;3.53;1.00;;;20.00;99.90;;;;;;4955105;29;20208;-63
2022/07/15 12:08:47;;;;;;;3.87;0.97;;;20.00;99.90;;;;;;4954713;29;20221;-63
2022/07/15 12:11:24;;;;;;;2.50;0.80;;;20.20;99.90;;;;;;4955735;29;20239;-63
2022/07/15 12:13:56;;;;;;;2.03;0.77;;;20.20;99.90;;;;;;4955131;29;20311;-63
2022/07/15 12:16:26;;;;;;;3.07;0.90;;;20.50;99.90;;;;;;4954958;29;20292;-64
2022/07/15 12:18:54;;;;;;;2.63;0.80;;;20.40;99.90;;;;;;4954789;29;20229;-65
2022/07/15 12:21:22;;;;;;;2.33;0.77;;;20.50;99.90;;;;;;4955387;29;20208;-68
2022/07/15 12:24:00;;;;;;;3.00;0.70;;;20.90;99.90;;;;;;4955614;29;20213;-67
2022/07/15 12:26:28;;;;;;;1.03;0.60;;;21.00;99.90;;;;;;4954237;29;20209;-65
2022/07/15 12:28:56;;;;;;;1.70;0.80;;;20.90;99.90;;;;;;4954913;29;20629;-65
2022/07/15 12:31:27;;;;;;;3.27;0.97;;;20.70;99.90;;;;;;4954918;29;20601;-66
2022/07/15 12:33:54;;;;;;;2.57;0.97;;;20.10;99.90;;;;;;4955042;29;20213;-66
2022/07/15 12:36:22;;;;;;;1.53;0.50;;;20.00;99.90;;;;;;4954619;29;20224;-64
2022/07/15 12:39:04;;;;;;;1.87;0.60;;;19.70;99.90;;;;;;4954651;29;20229;-68
2022/07/15 12:41:33;;;;;;;2.87;0.77;;;19.80;99.90;;;;;;4955021;29;20209;-66
2022/07/15 12:44:02;;;;;;;3.23;0.87;;;19.90;99.90;;;;;;4954337;29;20217;-65
2022/07/15 12:46:55;;;;;;;1.47;0.70;;;20.10;99.90;;;;;;4953695;29;20651;-65
2022/07/15 12:49:42;;;;;;;1.77;0.70;;;20.30;99.90;;;;;;4954196;29;20723;-65
2022/07/15 12:52:34;;;;;;;0.97;0.50;;;20.30;99.90;;;;;;4954989;29;20235;-64
2022/07/15 12:55:13;;;;;;;4.03;0.77;;;20.60;99.90;;;;;;4954344;29;20216;-62
2022/07/15 12:57:42;;;;;;;1.40;0.60;;;20.80;99.90;;;;;;4954193;29;20212;-62
2022/07/15 13:00:13;;;;;;;0.93;0.40;;;20.40;99.90;;;;;;4954436;29;20308;-62
2022/07/15 13:03:00;;;;;;;2.47;0.77;;;20.50;99.90;;;;;;4953866;28;20220;-62
2022/07/15 13:05:29;;;;;;;2.43;0.63;;;21.00;99.90;;;;;;4954708;29;20215;-63
2022/07/15 13:07:56;;;;;;;1.63;0.60;;;21.20;99.90;;;;;;4953393;29;20588;-62
2022/07/15 13:10:22;;;;;;;2.53;0.80;;;21.40;99.90;;;;;;4954091;29;20212;-62
2022/07/15 13:12:50;;;;;;;2.97;0.70;;;21.60;99.90;;;;;;4954010;29;20254;-62
2022/07/15 13:15:17;;;;;;;4.37;1.00;;;22.00;99.90;;;;;;4953804;29;20217;-64